Time;durP1;ratioP1;P1;durP2;ratioP2;P2;SDS_P1;SDS_P2;PMS_P1;PMS_P2;Temp;Humidity;BMP_temperature;BMP_pressure;BME280_temperature;BME280_humidity;BME280_pressure;Samples;Min_cycle;Max_cycle;Signal;HPM_P1;HPM_P2
2024/02/23 00:02:20;;;;;;;3.67;0.55;;;;;;;4.15;100.00;97103.50;5029480;28;20041;-96
2024/02/23 00:04:55;;;;;;;3.15;0.65;;;;;;;4.06;100.00;97106.22;4995859;28;20038;-96
2024/02/23 00:07:46;;;;;;;4.88;0.75;;;;;;;4.09;100.00;97116.28;4997427;28;20040;-96
2024/02/23 00:10:12;;;;;;;5.10;0.60;;;;;;;4.08;100.00;97122.53;5012611;28;20581;-96
2024/02/23 00:12:58;;;;;;;3.15;0.60;;;;;;;4.13;100.00;97123.78;5000113;28;20041;-96
2024/02/23 00:15:25;;;;;;;5.28;0.80;;;;;;;4.09;100.00;97131.19;5034165;28;20036;-96
2024/02/23 00:17:53;;;;;;;7.13;0.90;;;;;;;4.07;100.00;97135.78;4996569;28;20104;-95
2024/02/23 00:20:28;;;;;;;8.43;0.70;;;;;;;4.08;100.00;97134.78;4997892;28;20037;-96
2024/02/23 00:22:54;;;;;;;4.75;0.70;;;;;;;4.09;100.00;97141.66;4984092;28;20494;-96
2024/02/23 00:25:52;;;;;;;5.07;0.75;;;;;;;4.06;100.00;97134.16;4997553;28;20056;-96
2024/02/23 00:29:05;;;;;;;6.07;0.77;;;;;;;4.04;100.00;97142.19;5012889;28;20033;-96
2024/02/23 00:31:40;;;;;;;10.85;1.25;;;;;;;4.05;100.00;97148.22;5013307;28;20037;-96
2024/02/23 00:34:14;;;;;;;4.50;0.50;;;;;;;3.94;100.00;97137.25;4979646;28;20045;-96
2024/02/23 00:36:49;;;;;;;6.65;0.70;;;;;;;3.95;100.00;97145.91;5012489;28;20037;-96
2024/02/23 00:39:20;;;;;;;3.20;0.75;;;;;;;3.93;100.00;97147.91;5025270;28;20030;-96
2024/02/23 00:41:48;;;;;;;5.60;0.40;;;;;;;3.87;100.00;97151.25;4997868;28;20037;-96
2024/02/23 00:44:17;;;;;;;5.35;0.75;;;;;;;3.87;100.00;97159.09;5017315;28;20033;-96
2024/02/23 00:47:04;;;;;;;5.68;0.73;;;;;;;3.87;100.00;97149.41;4997472;28;20053;-96
2024/02/23 00:49:34;;;;;;;2.30;0.68;;;;;;;3.84;100.00;97149.78;5033656;28;20026;-96
2024/02/23 00:52:02;;;;;;;6.03;0.95;;;;;;;3.78;100.00;97166.19;5015992;28;20095;-96
2024/02/23 00:54:34;;;;;;;3.30;0.80;;;;;;;3.78;100.00;97167.00;4995630;28;20148;-96
2024/02/23 00:57:03;;;;;;;7.95;0.93;;;;;;;3.68;100.00;97156.06;5016870;28;20046;-96
2024/02/23 00:59:33;;;;;;;5.50;0.95;;;;;;;3.79;100.00;97166.00;5029245;28;20398;-96
2024/02/23 01:02:03;;;;;;;7.45;0.80;;;;;;;3.68;100.00;97161.28;5033929;28;20041;-96
2024/02/23 01:04:31;;;;;;;7.55;0.77;;;;;;;3.73;100.00;97166.75;5031090;28;20045;-96
2024/02/23 01:07:08;;;;;;;;;;;;;;;;;;;;;
2024/02/23 01:09:40;;;;;;;5.22;0.60;;;;;;;3.67;100.00;97164.84;5027013;28;20048;-96
2024/02/23 01:12:06;;;;;;;7.00;0.80;;;;;;;3.72;100.00;97172.97;5013973;28;20037;-96
2024/02/23 01:14:32;;;;;;;6.45;0.68;;;;;;;3.78;100.00;97174.03;5024164;28;20049;-96
2024/02/23 01:17:27;;;;;;;9.48;0.80;;;;;;;3.80;100.00;97178.09;5021682;28;20097;-96
2024/02/23 01:20:26;;;;;;;4.25;0.75;;;;;;;3.92;100.00;97181.03;5032398;28;20046;-96
2024/02/23 01:24:05;;;;;;;3.38;0.75;;;;;;;3.99;100.00;97188.16;5014563;28;20250;-96
2024/02/23 01:26:24;;;;;;;13.25;1.10;;;;;;;3.96;100.00;97182.31;5006951;28;20038;-96
2024/02/23 01:28:56;;;;;;;3.05;0.88;;;;;;;4.05;100.00;97174.34;5042729;28;20083;-96
2024/02/23 01:31:22;;;;;;;11.10;1.20;;;;;;;4.02;100.00;97170.31;5008000;28;20030;-91
2024/02/23 01:33:57;;;;;;;3.08;0.73;;;;;;;4.01;100.00;97167.88;5030012;28;20088;-92
2024/02/23 01:36:46;;;;;;;;;;;;;;;;;;;;;
2024/02/23 01:39:18;;;;;;;4.05;0.50;;;;;;;4.02;100.00;97175.53;5047891;28;20037;-94
2024/02/23 01:41:59;;;;;;;4.65;0.50;;;;;;;4.04;100.00;97183.19;5015580;28;20044;-96
2024/02/23 01:44:46;;;;;;;3.30;0.60;;;;;;;4.09;100.00;97183.47;5031838;28;20404;-96
2024/02/23 01:47:12;;;;;;;6.22;0.70;;;;;;;4.06;100.00;97189.84;5025064;28;20775;-95
2024/02/23 01:49:41;;;;;;;4.93;0.70;;;;;;;4.11;100.00;97178.84;5044079;28;20121;-95
2024/02/23 01:52:27;;;;;;;6.43;0.50;;;;;;;4.12;100.00;97190.13;5024943;28;20501;-96
2024/02/23 01:54:56;;;;;;;3.47;0.75;;;;;;;4.12;100.00;97184.88;5032081;28;20040;-96
2024/02/23 01:57:23;;;;;;;6.22;0.68;;;;;;;4.15;100.00;97179.28;5022976;28;20053;-96
2024/02/23 02:04:45;;;;;;;3.50;0.43;;;;;;;4.03;100.00;97186.81;4969433;28;20038;-96
2024/02/23 02:19:58;;;;;;;4.43;0.40;;;;;;;3.90;100.00;97187.47;4958875;28;20043;-96
2024/02/23 02:23:16;;;;;;;2.50;0.20;;;;;;;3.96;100.00;97189.34;4931815;28;20047;-96
2024/02/23 02:33:54;;;;;;;1.80;0.30;;;;;;;3.75;100.00;97177.81;4967235;28;20019;-96
2024/02/23 02:40:48;;;;;;;2.65;0.40;;;;;;;3.68;100.00;97182.16;5051715;28;20044;-96
2024/02/23 02:44:05;;;;;;;1.17;0.38;;;;;;;3.65;100.00;97174.66;5006510;28;20139;-96
2024/02/23 02:46:46;;;;;;;5.88;0.70;;;;;;;3.57;100.00;97179.00;5022901;28;20037;-96
2024/02/23 02:49:16;;;;;;;1.42;0.30;;;;;;;3.47;100.00;97178.47;5048312;28;20041;-96
2024/02/23 02:51:46;;;;;;;0.70;0.20;;;;;;;3.46;100.00;97164.59;5022910;28;20124;-96
2024/02/23 02:54:51;;;;;;;2.97;0.40;;;;;;;3.49;100.00;97173.88;5022993;28;20032;-96
2024/02/23 02:57:21;;;;;;;;;;;;;;;3.37;100.00;97180.53;5036271;28;20053;-96
2024/02/23 03:00:00;;;;;;;0.47;0.20;;;;;;;3.38;100.00;97176.94;5014619;28;19920;-96
2024/02/23 03:03:14;;;;;;;2.08;0.13;;;;;;;3.38;100.00;97171.72;5038172;28;20025;-96
2024/02/23 03:05:43;;;;;;;1.08;0.20;;;;;;;3.31;100.00;97175.03;5028328;28;20048;-96
2024/02/23 03:12:11;;;;;;;0.65;0.15;;;;;;;3.29;100.00;97130.03;5067218;28;20105;-96
2024/02/23 03:18:16;;;;;;;2.38;0.20;;;;;;;3.29;100.00;97143.09;5044873;28;20093;-96
2024/02/23 03:20:43;;;;;;;1.75;0.10;;;;;;;3.13;100.00;97141.44;5023357;28;20032;-96
2024/02/23 03:23:09;;;;;;;2.47;0.10;;;;;;;3.09;100.00;97141.00;5046032;28;20057;-96
2024/02/23 03:25:35;;;;;;;1.65;0.40;;;;;;;3.05;100.00;97133.69;5034685;28;20048;-96
2024/02/23 03:28:01;;;;;;;1.55;0.90;;;;;;;2.98;100.00;97131.81;5041371;28;20120;-96
2024/02/23 03:30:29;;;;;;;0.77;0.30;;;;;;;2.96;100.00;97144.19;5035122;28;20037;-96
2024/02/23 03:32:55;;;;;;;1.55;0.10;;;;;;;2.96;100.00;97149.41;5022056;28;20029;-96
2024/02/23 03:35:29;;;;;;;0.77;0.17;;;;;;;2.97;100.00;97151.06;5025021;28;20060;-96
2024/02/23 03:37:55;;;;;;;1.17;0.15;;;;;;;2.91;100.00;97149.16;5021037;28;20032;-96
2024/02/23 03:40:29;;;;;;;1.63;0.15;;;;;;;2.93;100.00;97148.97;5020566;28;20032;-96
2024/02/23 03:43:24;;;;;;;3.10;0.30;;;;;;;2.97;100.00;97145.84;5027836;28;20051;-96
2024/02/23 03:46:09;;;;;;;2.47;0.30;;;;;;;2.93;100.00;97139.34;5006823;28;20024;-96
2024/02/23 03:48:45;;;;;;;0.57;0.32;;;;;;;3.01;100.00;97148.09;5025360;28;20441;-96
2024/02/23 03:52:33;;;;;;;0.32;0.10;;;;;;;3.04;100.00;97129.47;5045102;28;20037;-96
2024/02/23 03:55:24;;;;;;;0.70;0.38;;;;;;;3.01;100.00;97125.41;5032425;28;20037;-96
2024/02/23 03:58:53;;;;;;;1.30;0.50;;;;;;;3.04;100.00;97116.44;5053639;28;20053;-96
2024/02/23 04:02:03;;;;;;;1.00;0.20;;;;;;;3.03;100.00;97114.78;5022928;28;20087;-96
2024/02/23 04:14:11;;;;;;;5.75;0.50;;;;;;;2.92;100.00;97108.22;5079200;28;20035;-96
2024/02/23 04:17:06;;;;;;;5.55;1.00;;;;;;;2.98;100.00;97107.50;5054683;28;20052;-96
2024/02/23 04:20:38;;;;;;;3.17;0.57;;;;;;;2.99;100.00;97106.53;5059351;28;20578;-96
2024/02/23 04:23:33;;;;;;;2.17;0.50;;;;;;;3.00;100.00;97113.34;5011814;28;20056;-96
2024/02/23 04:26:02;;;;;;;5.10;0.45;;;;;;;2.93;100.00;97128.13;5025165;28;20034;-96
2024/02/23 04:28:44;;;;;;;4.00;0.45;;;;;;;2.95;100.00;97136.56;5041753;28;20034;-96
2024/02/23 04:35:38;;;;;;;4.28;0.70;;;;;;;2.87;100.00;97136.66;5043731;28;20056;-96
2024/02/23 04:38:24;;;;;;;1.17;0.23;;;;;;;2.81;100.00;97135.53;5026057;28;20505;-96
2024/02/23 04:41:25;;;;;;;5.38;0.63;;;;;;;2.88;100.00;97141.69;5007038;28;20041;-96
2024/02/23 04:44:02;;;;;;;;;;;;;;;;;;;;;
2024/02/23 04:46:37;;;;;;;2.40;0.65;;;;;;;2.85;100.00;97140.22;5028944;28;20100;-96
2024/02/23 04:49:33;;;;;;;5.72;0.65;;;;;;;2.84;100.00;97138.63;5020504;28;20033;-96
2024/02/23 04:52:02;;;;;;;3.77;0.50;;;;;;;2.78;100.00;97152.38;5026011;28;20540;-96
2024/02/23 04:58:06;;;;;;;1.13;0.55;;;;;;;2.73;100.00;97147.69;5044147;28;20055;-96
2024/02/23 05:00:55;;;;;;;3.90;0.63;;;;;;;2.81;100.00;97148.59;5043746;28;20065;-96
2024/02/23 05:03:24;;;;;;;;;;;;;;;2.75;100.00;97144.06;5044741;28;20059;-96
2024/02/23 05:06:20;;;;;;;4.05;0.32;;;;;;;2.75;100.00;97150.09;5021888;28;19913;-96
2024/02/23 05:08:49;;;;;;;;;;;;;;;2.69;100.00;97145.59;5029441;28;20401;-96
2024/02/23 05:11:16;;;;;;;4.72;0.43;;;;;;;2.64;100.00;97158.34;5042779;28;19971;-96
2024/02/23 05:17:03;;;;;;;0.50;0.20;;;;;;;2.56;100.00;97154.00;5059129;28;20043;-96
2024/02/23 05:19:30;;;;;;;3.45;0.38;;;;;;;2.54;100.00;97151.56;5029206;28;20040;-96
2024/02/23 05:22:23;;;;;;;3.20;0.30;;;;;;;2.57;100.00;97158.22;5026829;28;20037;-96
2024/02/23 05:25:15;;;;;;;1.45;0.10;;;;;;;2.57;100.00;97163.44;5022825;28;20040;-96
2024/02/23 05:28:29;;;;;;;2.67;0.20;;;;;;;2.56;100.00;97167.88;5051866;28;20045;-96
2024/02/23 05:30:58;;;;;;;2.50;0.30;;;;;;;2.53;100.00;97163.00;5047572;28;20048;-96
2024/02/23 05:33:49;;;;;;;1.45;0.20;;;;;;;2.60;100.00;97171.72;5017620;28;20045;-96
2024/02/23 05:36:23;;;;;;;1.13;0.32;;;;;;;2.53;100.00;97168.22;5038979;28;20054;-96
2024/02/23 05:39:18;;;;;;;4.15;0.17;;;;;;;2.59;100.00;97177.94;5033825;28;20048;-96
2024/02/23 05:42:11;;;;;;;2.67;0.50;;;;;;;2.62;100.00;97173.34;5036804;28;20048;-96
2024/02/23 05:44:59;;;;;;;0.55;0.30;;;;;;;2.61;100.00;97172.56;5016899;28;20064;-96
2024/02/23 05:48:18;;;;;;;;;;;;;;;;;;;;;
2024/02/23 05:51:54;;;;;;;0.68;0.47;;;;;;;2.65;100.00;97167.78;5041951;28;20087;-96
2024/02/23 06:09:44;;;;;;;5.60;0.40;;;;;;;2.77;100.00;97157.75;4929057;28;20138;-96
2024/02/23 06:17:03;;;;;;;4.97;0.47;;;;;;;2.77;100.00;97162.97;4994189;28;20081;-96
2024/02/23 06:19:34;;;;;;;4.43;0.52;;;;;;;2.71;100.00;97160.06;4969364;28;20057;-96
2024/02/23 06:22:12;;;;;;;5.00;0.80;;;;;;;2.71;100.00;97159.25;4956518;28;20088;-96
2024/02/23 06:24:55;;;;;;;3.55;0.57;;;;;;;2.76;100.00;97174.38;4984680;28;20041;-96
2024/02/23 06:27:21;;;;;;;5.20;0.47;;;;;;;2.73;100.00;97171.16;5023805;28;20068;-96
2024/02/23 06:29:48;;;;;;;2.03;0.70;;;;;;;2.79;100.00;97161.81;5025047;28;20052;-96
2024/02/23 06:36:16;;;;;;;4.10;0.40;;;;;;;2.91;100.00;97166.59;5067177;28;20033;-96
2024/02/23 06:48:47;;;;;;;4.13;0.22;;;;;;;3.09;100.00;97177.53;5174567;23;20048;-96
2024/02/23 07:02:22;;;;;;;1.63;0.20;;;;;;;3.06;100.00;97177.06;5068331;28;19924;-97
2024/02/23 07:04:56;;;;;;;1.30;0.22;;;;;;;3.13;100.00;97179.78;5040436;28;20052;-96
2024/02/23 07:15:26;;;;;;;;;;;;;;;;;;;;;
2024/02/23 07:21:31;;;;;;;3.05;0.30;;;;;;;3.26;100.00;97172.16;5641544;23;20148;-96
2024/02/23 07:24:24;;;;;;;0.68;0.30;;;;;;;3.31;100.00;97158.56;4994409;28;20041;-96
2024/02/23 07:30:24;;;;;;;1.48;0.40;;;;;;;3.19;100.00;97166.00;5519158;23;20160;-95
2024/02/23 07:38:25;;;;;;;0.88;0.20;;;;;;;3.15;100.00;97175.19;5005727;28;20100;-95
2024/02/23 07:41:19;;;;;;;;;;;;;;;;;;;;;
2024/02/23 07:44:32;;;;;;;2.78;0.50;;;;;;;3.09;100.00;97187.16;5003476;28;20053;-96
2024/02/23 07:47:28;;;;;;;2.05;0.20;;;;;;;3.12;100.00;97180.78;4961185;28;20061;-96
2024/02/23 07:49:58;;;;;;;0.85;0.30;;;;;;;3.07;100.00;97189.91;4973999;28;20045;-96
2024/02/23 08:16:55;;;;;;;2.10;0.25;;;;;;;3.14;100.00;97203.09;5089519;23;20060;-96
2024/02/23 08:23:45;;;;;;;1.40;0.40;;;;;;;3.19;100.00;97202.56;5010473;28;20124;-96
2024/02/23 08:27:12;;;;;;;0.75;0.10;;;;;;;3.24;100.00;97205.44;5019914;28;20033;-95
2024/02/23 08:30:29;;;;;;;3.33;0.25;;;;;;;3.33;100.00;97214.00;5022826;28;20033;-96
2024/02/23 08:33:15;;;;;;;1.23;0.30;;;;;;;3.39;100.00;97215.09;4994545;28;20179;-96
2024/02/23 08:36:32;;;;;;;1.40;0.20;;;;;;;3.42;100.00;97220.78;4952545;29;20546;-96
2024/02/23 08:39:39;;;;;;;;;;;;;;;;;;;;;
2024/02/23 08:42:56;;;;;;;0.38;0.35;;;;;;;3.59;100.00;97228.44;4918053;29;20039;-95
2024/02/23 08:54:04;;;;;;;1.73;0.28;;;;;;;3.99;100.00;97216.91;5026041;28;20098;-96
2024/02/23 09:05:22;;;;;;;4.55;0.30;;;;;;;4.20;100.00;97219.56;4992026;28;20045;-95
2024/02/23 09:11:15;;;;;;;0.30;0.20;;;;;;;4.39;100.00;97227.84;5018254;28;20041;-95
2024/02/23 09:13:42;;;;;;;0.85;0.20;;;;;;;4.30;100.00;97229.72;4995803;28;20037;-95
2024/02/23 09:16:22;;;;;;;1.75;0.20;;;;;;;4.36;100.00;97230.81;4994092;28;20056;-96
2024/02/23 09:18:48;;;;;;;1.85;0.15;;;;;;;4.29;100.00;97235.16;5001432;28;20029;-95
2024/02/23 09:21:14;;;;;;;0.50;0.20;;;;;;;4.21;100.00;97238.69;5004166;28;20037;-96
2024/02/23 09:23:41;;;;;;;1.70;0.20;;;;;;;4.14;100.00;97241.22;4999206;28;20037;-94
2024/02/23 09:34:58;;;;;;;2.28;0.35;;;;;;;3.99;100.00;97241.25;5027668;28;20108;-95
2024/02/23 09:38:06;;;;;;;2.20;0.30;;;;;;;3.91;100.00;97251.78;4966622;28;20039;-94
2024/02/23 09:40:32;;;;;;;1.38;0.25;;;;;;;3.92;100.00;97248.16;4975735;28;20064;-95
2024/02/23 09:43:01;;;;;;;1.63;0.30;;;;;;;3.96;100.00;97246.81;5013552;28;20041;-95
2024/02/23 09:45:28;;;;;;;1.88;0.35;;;;;;;3.97;100.00;97254.47;5014655;28;20052;-95
2024/02/23 09:47:57;;;;;;;1.20;0.30;;;;;;;4.05;100.00;97258.81;5000452;28;20044;-95
2024/02/23 09:50:24;;;;;;;2.63;0.30;;;;;;;4.06;100.00;97263.03;4998266;28;20025;-95
2024/02/23 09:52:50;;;;;;;2.28;0.30;;;;;;;4.08;100.00;97258.44;5000217;28;20024;-95
2024/02/23 09:55:22;;;;;;;1.85;0.32;;;;;;;4.13;100.00;97255.28;4992444;28;20061;-95
2024/02/23 09:58:01;;;;;;;2.47;0.40;;;;;;;4.19;100.00;97251.94;5000703;23;20133;-95
2024/02/23 10:00:31;;;;;;;4.30;0.40;;;;;;;4.25;100.00;97260.88;4978529;28;20049;-95
2024/02/23 10:03:13;;;;;;;;;;;;;;;4.23;100.00;97260.22;5072181;22;21478;-95
2024/02/23 10:05:39;;;;;;;5.25;0.80;;;;;;;4.19;100.00;97265.00;4999830;28;20237;-94
2024/02/23 10:08:06;;;;;;;3.67;0.50;;;;;;;4.26;100.00;97275.56;5001820;28;20039;-94
2024/02/23 10:10:37;;;;;;;1.20;0.52;;;;;;;4.36;100.00;97269.22;4990731;28;20044;-95
2024/02/23 10:13:05;;;;;;;5.68;0.98;;;;;;;4.37;100.00;97273.44;5015568;28;20124;-95
2024/02/23 10:15:31;;;;;;;4.47;0.52;;;;;;;4.36;100.00;97275.28;5001602;28;20045;-96
2024/02/23 10:17:58;;;;;;;4.25;0.50;;;;;;;4.33;100.00;97279.03;4992968;28;20034;-96
2024/02/23 10:20:24;;;;;;;2.35;0.50;;;;;;;4.36;100.00;97283.13;4993023;28;20022;-95
2024/02/23 10:22:53;;;;;;;2.72;0.68;;;;;;;4.42;100.00;97286.78;5073017;23;20050;-92
2024/02/23 10:25:33;;;;;;;3.78;0.65;;;;;;;4.54;100.00;97285.31;4979608;28;20084;-94
2024/02/23 10:28:01;;;;;;;3.45;0.70;;;;;;;4.49;100.00;97285.06;4989291;23;20309;-92
2024/02/23 10:30:33;;;;;;;4.70;0.70;;;;;;;4.68;100.00;97293.34;4984206;28;20041;-94
2024/02/23 10:33:05;;;;;;;2.78;0.60;;;;;;;4.72;100.00;97300.63;5002071;28;20045;-96
2024/02/23 10:35:35;;;;;;;3.25;0.40;;;;;;;4.77;100.00;97310.53;5001947;28;20145;-95
2024/02/23 10:38:04;;;;;;;4.05;0.95;;;;;;;4.89;100.00;97305.63;4980203;28;20192;-94
2024/02/23 10:40:31;;;;;;;6.35;0.60;;;;;;;4.99;100.00;97307.13;4998907;28;20033;-93
2024/02/23 10:43:03;;;;;;;2.97;0.60;;;;;;;5.06;100.00;97295.75;4984498;28;20132;-93
2024/02/23 10:45:32;;;;;;;3.00;0.40;;;;;;;5.00;100.00;97298.28;4988946;28;20038;-94
2024/02/23 10:48:04;;;;;;;5.65;0.68;;;;;;;5.11;100.00;97313.50;4998496;28;20041;-95
2024/02/23 10:50:32;;;;;;;3.10;0.70;;;;;;;5.12;100.00;97304.66;4984073;28;20030;-91
2024/02/23 10:53:00;;;;;;;2.92;0.60;;;;;;;5.22;100.00;97315.59;4983441;28;20033;-91
2024/02/23 10:55:45;;;;;;;5.72;0.90;;;;;;;5.37;100.00;97311.31;4980118;28;20060;-95
2024/02/23 10:58:13;;;;;;;1.60;0.50;;;;;;;5.52;100.00;97319.09;4983092;28;20050;-95
2024/02/23 11:04:14;;;;;;;9.45;2.28;;;;;;;5.76;100.00;97330.16;5031626;28;20504;-94
2024/02/23 11:06:40;;;;;;;3.08;0.75;;;;;;;5.71;100.00;97330.72;4999330;28;20504;-94
2024/02/23 11:09:13;;;;;;;7.57;0.80;;;;;;;5.77;100.00;97339.63;4997855;28;20077;-92
2024/02/23 11:11:39;;;;;;;4.00;1.45;;;;;;;5.79;100.00;97338.44;4976135;28;20030;-93
2024/02/23 11:14:14;;;;;;;2.95;0.50;;;;;;;5.92;100.00;97342.97;4985764;28;20044;-93
2024/02/23 11:16:42;;;;;;;3.80;0.70;;;;;;;5.92;100.00;97342.16;4983702;28;20053;-95
2024/02/23 11:19:12;;;;;;;2.35;0.50;;;;;;;6.05;100.00;97342.25;4983313;28;20038;-95
2024/02/23 11:21:40;;;;;;;6.38;0.60;;;;;;;6.07;100.00;97345.50;4984855;28;20088;-91
2024/02/23 11:24:07;;;;;;;3.95;0.60;;;;;;;6.09;100.00;97347.94;4983201;28;20038;-92
2024/02/23 11:26:36;;;;;;;1.90;0.80;;;;;;;6.15;100.00;97348.97;4983161;28;20029;-89
2024/02/23 11:29:12;;;;;;;2.38;0.35;;;;;;;6.23;100.00;97355.91;4991779;28;20056;-87
2024/02/23 11:31:46;;;;;;;4.55;0.57;;;;;;;6.16;100.00;97355.88;4999971;28;20823;-90
2024/02/23 11:34:11;;;;;;;0.90;0.20;;;;;;;6.11;100.00;97353.00;5014890;28;20033;-93
2024/02/23 11:36:39;;;;;;;4.47;0.50;;;;;;;6.21;100.00;97377.09;4983960;28;20034;-91
2024/02/23 11:39:06;;;;;;;3.08;0.77;;;;;;;6.15;100.00;97368.16;4983692;28;20040;-94
2024/02/23 11:41:32;;;;;;;4.40;0.47;;;;;;;6.13;100.00;97357.03;4997104;28;20042;-92
2024/02/23 11:44:03;;;;;;;6.72;0.63;;;;;;;6.18;100.00;97380.09;4978374;28;20030;-94
2024/02/23 11:46:29;;;;;;;2.60;0.30;;;;;;;6.00;100.00;97370.88;4998385;28;20061;-88
2024/02/23 11:48:57;;;;;;;4.63;0.50;;;;;;;5.95;100.00;97378.47;4996340;28;20675;-91
2024/02/23 11:51:29;;;;;;;3.72;0.50;;;;;;;6.00;100.00;97383.97;4985163;28;20037;-91
2024/02/23 11:53:58;;;;;;;7.00;0.60;;;;;;;6.00;100.00;97383.16;4987953;28;20049;-91
2024/02/23 11:56:24;;;;;;;2.38;0.52;;;;;;;6.10;100.00;97385.47;4999650;28;20060;-91
2024/02/23 11:58:50;;;;;;;5.00;0.45;;;;;;;6.10;100.00;97380.22;4984440;28;20069;-91
2024/02/23 12:01:16;;;;;;;4.47;0.60;;;;;;;6.15;100.00;97383.06;5000296;28;20072;-92
2024/02/23 12:03:45;;;;;;;4.22;0.95;;;;;;;6.19;100.00;97379.06;5000294;28;20038;-91
2024/02/23 12:06:13;;;;;;;6.30;0.68;;;;;;;6.35;100.00;97380.59;4982949;28;20095;-93
2024/02/23 12:08:43;;;;;;;4.97;0.50;;;;;;;6.61;100.00;97375.69;4994921;28;20037;-93
2024/02/23 12:11:09;;;;;;;3.60;0.50;;;;;;;6.69;100.00;97376.31;4995341;28;20037;-94
2024/02/23 12:13:36;;;;;;;1.20;0.43;;;;;;;6.92;100.00;97372.56;4998113;28;20037;-91
2024/02/23 12:16:02;;;;;;;2.33;0.43;;;;;;;7.10;100.00;97373.84;4997149;28;20598;-91
2024/02/23 12:18:36;;;;;;;3.50;0.70;;;;;;;7.26;100.00;97379.72;4995100;28;20065;-91
2024/02/23 12:21:05;;;;;;;2.90;0.60;;;;;;;7.31;100.00;97367.59;4981525;28;20140;-92
2024/02/23 12:24:00;;;;;;;1.90;0.50;;;;;;;7.38;100.00;97362.38;4996693;28;20037;-91
2024/02/23 12:26:25;;;;;;;1.85;0.60;;;;;;;7.27;100.00;97355.88;4986495;28;20095;-93
2024/02/23 12:28:53;;;;;;;2.30;0.77;;;;;;;7.37;100.00;97365.19;4975230;28;20116;-92
2024/02/23 12:31:26;;;;;;;4.93;0.88;;;;;;;7.53;100.00;97359.53;4981527;28;20029;-95
2024/02/23 12:34:00;;;;;;;5.10;0.70;;;;;;;7.49;100.00;97358.34;4979373;28;20045;-92
2024/02/23 12:36:35;;;;;;;5.00;0.52;;;;;;;7.49;100.00;97354.88;4998443;28;20033;-91
2024/02/23 12:39:01;;;;;;;7.00;1.67;;;;;;;7.38;100.00;97349.22;4997508;28;20050;-90
2024/02/23 12:41:27;;;;;;;5.82;0.90;;;;;;;7.51;100.00;97348.44;4997157;28;20037;-92
2024/02/23 12:43:54;;;;;;;8.00;0.90;;;;;;;7.56;100.00;97346.00;4982146;28;20091;-92
2024/02/23 12:46:20;;;;;;;7.65;1.58;;;;;;;7.55;100.00;97352.28;4992960;28;20060;-91
2024/02/23 12:48:45;;;;;;;14.18;1.58;;;;;;;7.52;100.00;97346.59;4977580;28;20108;-92
2024/02/23 12:51:12;;;;;;;8.45;1.05;;;;;;;7.57;100.00;97350.25;4975542;28;20030;-92
2024/02/23 12:53:43;;;;;;;5.25;1.30;;;;;;;7.67;100.00;97346.41;4997903;28;20140;-92
2024/02/23 12:56:11;;;;;;;9.80;1.27;;;;;;;7.61;100.00;97339.34;4980145;28;20493;-87
2024/02/23 12:59:09;;;;;;;7.07;1.10;;;;;;;7.57;100.00;97334.47;4991932;28;20033;-92
2024/02/23 13:01:37;;;;;;;6.07;1.30;;;;;;;7.42;100.00;97329.41;4977795;28;20132;-93
2024/02/23 13:04:09;;;;;;;5.95;1.17;;;;;;;7.26;100.00;97327.97;4972244;28;20060;-91
2024/02/23 13:06:38;;;;;;;6.22;1.52;;;;;;;7.16;100.00;97323.13;5013384;28;20154;-95
2024/02/23 13:09:04;;;;;;;7.70;1.17;;;;;;;7.02;100.00;97322.31;4981604;28;20029;-94
2024/02/23 13:11:31;;;;;;;12.27;1.77;;;;;;;6.99;100.00;97324.50;4993981;28;20041;-93
2024/02/23 13:14:12;;;;;;;10.05;1.63;;;;;;;7.09;100.00;97326.75;4997171;28;20517;-95
2024/02/23 13:16:38;;;;;;;6.03;1.77;;;;;;;7.17;100.00;97329.19;4980850;28;20057;-92
2024/02/23 13:19:04;;;;;;;7.95;1.75;;;;;;;7.25;100.00;97322.91;4999473;28;20105;-93
2024/02/23 13:21:32;;;;;;;9.40;1.13;;;;;;;7.25;100.00;97325.56;4982005;28;20034;-94
2024/02/23 13:23:58;;;;;;;3.22;0.90;;;;;;;7.32;100.00;97323.75;4986326;28;20125;-92
2024/02/23 13:26:24;;;;;;;4.63;0.85;;;;;;;7.32;100.00;97327.19;4986359;28;20037;-94
2024/02/23 13:28:51;;;;;;;7.30;1.33;;;;;;;7.23;100.00;97333.63;4993985;28;20054;-93
2024/02/23 13:31:17;;;;;;;8.93;2.15;;;;;;;7.15;100.00;97323.34;4996971;28;20037;-93
2024/02/23 13:33:44;;;;;;;6.35;1.83;;;;;;;7.16;100.00;97331.00;4994880;28;20037;-93
2024/02/23 13:36:11;;;;;;;6.97;2.38;;;;;;;7.24;100.00;97334.44;4999973;28;20033;-92
2024/02/23 13:38:43;;;;;;;12.43;1.55;;;;;;;7.38;100.00;97320.31;5001480;28;20046;-95
2024/02/23 13:41:13;;;;;;;5.88;1.05;;;;;;;7.58;100.00;97332.66;4995025;28;20030;-95
2024/02/23 13:43:39;;;;;;;11.15;3.28;;;;;;;7.63;100.00;97334.69;4982002;28;20037;-94
2024/02/23 13:49:43;;;;;;;9.30;3.42;;;;;;;7.67;100.00;97349.03;4986189;28;20037;-92
2024/02/23 13:52:10;;;;;;;8.73;2.90;;;;;;;7.68;100.00;97355.91;4982334;28;20064;-90
2024/02/23 13:54:36;;;;;;;6.63;1.58;;;;;;;7.64;100.00;97360.78;4990722;28;20030;-93
2024/02/23 13:57:05;;;;;;;11.13;3.33;;;;;;;7.48;100.00;97356.72;4992222;28;20172;-93
2024/02/23 13:59:34;;;;;;;5.70;0.95;;;;;;;7.47;100.00;97352.47;4999742;28;20048;-95
2024/02/23 14:02:00;;;;;;;6.75;1.15;;;;;;;7.53;100.00;97356.91;5002300;28;20034;-94
2024/02/23 14:04:29;;;;;;;6.43;1.00;;;;;;;7.64;100.00;97349.44;4984322;28;20041;-93
2024/02/23 14:06:55;;;;;;;7.88;1.23;;;;;;;7.65;100.00;97356.31;4995681;28;20034;-91
2024/02/23 14:09:21;;;;;;;6.35;1.10;;;;;;;7.69;100.00;97354.91;4995811;28;20029;-90
2024/02/23 14:11:48;;;;;;;6.63;1.40;;;;;;;7.89;100.00;97361.97;4996061;28;20128;-89
2024/02/23 14:14:14;;;;;;;6.95;2.47;;;;;;;7.98;100.00;97367.84;5001787;28;20044;-92
2024/02/23 14:16:40;;;;;;;13.10;1.42;;;;;;;8.00;100.00;97360.53;4985279;28;20037;-91
2024/02/23 14:19:09;;;;;;;19.65;4.75;;;;;;;7.93;100.00;97361.34;4983248;28;20100;-92
2024/02/23 14:21:40;;;;;;;9.00;2.70;;;;;;;7.75;100.00;97369.06;4997290;28;20046;-92
2024/02/23 14:24:45;;;;;;;11.07;2.58;;;;;;;7.54;100.00;97370.88;5000653;28;20036;-93
2024/02/23 14:27:13;;;;;;;7.00;1.50;;;;;;;7.32;100.00;97369.25;4997078;28;20029;-94
2024/02/23 14:30:08;;;;;;;8.35;2.28;;;;;;;7.21;100.00;97364.56;4984987;28;20465;-93
2024/02/23 14:32:35;;;;;;;5.53;1.10;;;;;;;7.04;100.00;97378.03;4973890;28;20054;-92
2024/02/23 14:39:40;;;;;;;8.00;1.38;;;;;;;6.91;100.00;97389.31;4934220;29;20082;-93
2024/02/23 14:42:09;;;;;;;10.23;1.58;;;;;;;6.84;100.00;97372.75;4902023;29;20071;-90
2024/02/23 14:44:54;;;;;;;6.88;1.48;;;;;;;6.81;100.00;97379.19;4952140;28;20042;-92
2024/02/23 14:47:21;;;;;;;6.45;0.82;;;;;;;6.73;100.00;97375.91;4953675;28;20051;-91
2024/02/23 14:50:30;;;;;;;6.35;1.23;;;;;;;6.77;100.00;97393.69;4955826;28;20030;-93
2024/02/23 14:53:16;;;;;;;5.03;0.93;;;;;;;6.76;100.00;97391.28;4906683;28;20530;-91
2024/02/23 15:00:23;;;;;;;5.75;1.17;;;;;;;6.68;100.00;97389.63;4897863;29;20045;-91
2024/02/23 15:24:18;;;;;;;4.00;1.95;;;;;;;5.16;100.00;97442.03;5293579;22;20049;-96
2024/02/23 15:26:44;;;;;;;6.68;0.90;;;;;;;5.30;100.00;97448.22;4976222;28;20038;-95
2024/02/23 15:29:10;;;;;;;2.97;0.82;;;;;;;5.38;100.00;97444.72;4987932;28;20034;-94
2024/02/23 15:31:37;;;;;;;5.68;1.88;;;;;;;5.43;100.00;97437.09;4999086;23;20066;-96
2024/02/23 15:34:03;;;;;;;4.15;1.27;;;;;;;5.57;100.00;97439.84;4966948;28;20045;-96
2024/02/23 15:36:29;;;;;;;3.28;0.90;;;;;;;5.66;100.00;97443.16;4983873;28;20044;-96
2024/02/23 15:38:58;;;;;;;10.63;6.30;;;;;;;5.75;100.00;97447.25;4994026;28;20524;-96
2024/02/23 15:41:25;;;;;;;10.93;4.35;;;;;;;5.87;100.00;97434.47;5008037;28;20045;-96
2024/02/23 15:43:51;;;;;;;30.10;18.17;;;;;;;5.86;100.00;97429.44;4974651;28;20557;-94
2024/02/23 15:46:17;;;;;;;7.72;4.20;;;;;;;5.88;100.00;97432.66;5019148;28;20025;-95
2024/02/23 15:48:43;;;;;;;7.63;1.50;;;;;;;5.87;100.00;97439.72;4976119;28;20045;-96
2024/02/23 15:51:09;;;;;;;4.15;1.48;;;;;;;5.97;100.00;97426.31;4992194;28;20026;-96
2024/02/23 15:53:35;;;;;;;9.15;4.53;;;;;;;6.03;100.00;97433.41;4985197;28;20038;-94
2024/02/23 15:56:01;;;;;;;11.32;5.38;;;;;;;5.96;100.00;97425.47;4989255;28;20029;-96
2024/02/23 15:58:27;;;;;;;6.72;2.47;;;;;;;6.01;100.00;97426.72;4971130;28;20119;-96
2024/02/23 16:00:58;;;;;;;5.22;2.15;;;;;;;6.06;100.00;97434.84;4978026;28;20033;-96
2024/02/23 16:03:24;;;;;;;11.85;5.30;;;;;;;6.10;100.00;97436.09;4967612;28;20064;-96